sensor_id;sensor_type;location;lat;lon;timestamp;pressure;altitude;pressure_sealevel;temperature;humidity
19553;BME280;9420;50.876;7.012;2023-03-22T00:01:59;100715.94;;;18.17;98.07
19553;BME280;9420;50.876;7.012;2023-03-22T00:04:26;100707.94;;;18.31;97.19
19553;BME280;9420;50.876;7.012;2023-03-22T00:06:53;100714.13;;;18.32;97.23
19553;BME280;9420;50.876;7.012;2023-03-22T00:09:20;100711.81;;;18.55;96.02
19553;BME280;9420;50.876;7.012;2023-03-22T00:11:47;100704.34;;;18.32;97.13
19553;BME280;9420;50.876;7.012;2023-03-22T00:14:16;100708.69;;;18.33;97.12
19553;BME280;9420;50.876;7.012;2023-03-22T00:16:44;100708.38;;;18.53;96.44
19553;BME280;9420;50.876;7.012;2023-03-22T00:19:14;100702.38;;;18.06;98.84
19553;BME280;9420;50.876;7.012;2023-03-22T00:21:42;100690.66;;;18.52;98.02
19553;BME280;9420;50.876;7.012;2023-03-22T00:24:09;100688.44;;;18.59;97.22
19553;BME280;9420;50.876;7.012;2023-03-22T00:26:36;100683.00;;;18.60;97.25
19553;BME280;9420;50.876;7.012;2023-03-22T00:29:03;100681.31;;;18.59;96.37
19553;BME280;9420;50.876;7.012;2023-03-22T00:31:31;100677.84;;;18.29;97.88
19553;BME280;9420;50.876;7.012;2023-03-22T00:33:59;100668.34;;;18.67;96.14
19553;BME280;9420;50.876;7.012;2023-03-22T00:36:26;100667.56;;;18.79;95.73
19553;BME280;9420;50.876;7.012;2023-03-22T00:38:53;100672.56;;;18.57;96.87
19553;BME280;9420;50.876;7.012;2023-03-22T00:41:22;100671.69;;;18.57;97.01
19553;BME280;9420;50.876;7.012;2023-03-22T00:43:50;100655.63;;;18.44;95.68
19553;BME280;9420;50.876;7.012;2023-03-22T00:46:19;100649.19;;;18.75;95.53
19553;BME280;9420;50.876;7.012;2023-03-22T00:48:47;100652.75;;;18.61;97.31
19553;BME280;9420;50.876;7.012;2023-03-22T00:51:16;100653.88;;;18.29;99.69
19553;BME280;9420;50.876;7.012;2023-03-22T00:53:44;100648.28;;;18.48;98.69
19553;BME280;9420;50.876;7.012;2023-03-22T00:56:14;100647.94;;;18.66;98.14
19553;BME280;9420;50.876;7.012;2023-03-22T00:58:41;100642.06;;;18.61;98.40
19553;BME280;9420;50.876;7.012;2023-03-22T01:01:08;100644.38;;;18.53;98.49
19553;BME280;9420;50.876;7.012;2023-03-22T01:03:38;100637.59;;;18.34;100.00
19553;BME280;9420;50.876;7.012;2023-03-22T01:06:06;100632.84;;;18.39;100.00
19553;BME280;9420;50.876;7.012;2023-03-22T01:08:35;100632.91;;;18.37;99.87
19553;BME280;9420;50.876;7.012;2023-03-22T01:11:04;100634.44;;;18.41;99.53
19553;BME280;9420;50.876;7.012;2023-03-22T01:13:33;100628.44;;;18.38;99.37
19553;BME280;9420;50.876;7.012;2023-03-22T01:16:02;100619.16;;;18.85;97.20
19553;BME280;9420;50.876;7.012;2023-03-22T01:18:29;100632.00;;;18.93;96.37
19553;BME280;9420;50.876;7.012;2023-03-22T01:20:58;100625.69;;;18.67;98.28
19553;BME280;9420;50.876;7.012;2023-03-22T01:23:25;100635.69;;;18.64;98.97
19553;BME280;9420;50.876;7.012;2023-03-22T01:25:53;100633.78;;;18.38;100.00
19553;BME280;9420;50.876;7.012;2023-03-22T01:28:21;100632.19;;;18.49;100.00
19553;BME280;9420;50.876;7.012;2023-03-22T01:30:49;100632.19;;;18.90;98.30
19553;BME280;9420;50.876;7.012;2023-03-22T01:33:16;100626.25;;;18.58;98.50
19553;BME280;9420;50.876;7.012;2023-03-22T01:35:43;100627.00;;;18.74;99.16
19553;BME280;9420;50.876;7.012;2023-03-22T01:38:11;100621.50;;;18.63;99.81
19553;BME280;9420;50.876;7.012;2023-03-22T01:40:38;100610.47;;;18.27;100.00
19553;BME280;9420;50.876;7.012;2023-03-22T01:43:13;100608.75;;;18.54;100.00
19553;BME280;9420;50.876;7.012;2023-03-22T01:45:43;100611.09;;;18.73;100.00
19553;BME280;9420;50.876;7.012;2023-03-22T01:48:27;100607.78;;;18.41;100.00
19553;BME280;9420;50.876;7.012;2023-03-22T01:51:04;100606.00;;;18.56;100.00
19553;BME280;9420;50.876;7.012;2023-03-22T01:53:40;100601.91;;;18.50;100.00
19553;BME280;9420;50.876;7.012;2023-03-22T01:56:09;100602.84;;;18.35;100.00
19553;BME280;9420;50.876;7.012;2023-03-22T01:58:39;100593.38;;;18.45;100.00
19553;BME280;9420;50.876;7.012;2023-03-22T02:01:10;100595.53;;;17.96;100.00
19553;BME280;9420;50.876;7.012;2023-03-22T02:03:45;100594.19;;;18.46;99.49
19553;BME280;9420;50.876;7.012;2023-03-22T02:06:14;100593.22;;;18.61;98.83
19553;BME280;9420;50.876;7.012;2023-03-22T02:08:41;100587.41;;;18.54;99.42
19553;BME280;9420;50.876;7.012;2023-03-22T02:11:15;100590.84;;;18.56;99.49
19553;BME280;9420;50.876;7.012;2023-03-22T02:14:13;100590.25;;;18.65;98.94
19553;BME280;9420;50.876;7.012;2023-03-22T02:16:57;100585.09;;;18.76;97.52
19553;BME280;9420;50.876;7.012;2023-03-22T02:23:22;100577.50;;;18.70;98.86
19553;BME280;9420;50.876;7.012;2023-03-22T02:26:40;100569.50;;;18.42;99.94
19553;BME280;9420;50.876;7.012;2023-03-22T02:29:22;100572.75;;;18.33;100.00
19553;BME280;9420;50.876;7.012;2023-03-22T02:32:44;100564.31;;;18.12;100.00
19553;BME280;9420;50.876;7.012;2023-03-22T02:35:41;100560.44;;;18.18;100.00
19553;BME280;9420;50.876;7.012;2023-03-22T02:39:12;100564.81;;;18.05;100.00
19553;BME280;9420;50.876;7.012;2023-03-22T02:41:59;100570.84;;;18.35;100.00
19553;BME280;9420;50.876;7.012;2023-03-22T02:44:40;100568.03;;;17.96;100.00
19553;BME280;9420;50.876;7.012;2023-03-22T02:47:20;100563.66;;;18.09;100.00
19553;BME280;9420;50.876;7.012;2023-03-22T02:49:55;100565.19;;;17.85;100.00
19553;BME280;9420;50.876;7.012;2023-03-22T02:52:30;100549.69;;;17.91;100.00
19553;BME280;9420;50.876;7.012;2023-03-22T02:55:09;100539.72;;;17.95;100.00
19553;BME280;9420;50.876;7.012;2023-03-22T02:57:44;100547.09;;;18.18;100.00
19553;BME280;9420;50.876;7.012;2023-03-22T03:00:17;100545.19;;;18.20;100.00
19553;BME280;9420;50.876;7.012;2023-03-22T03:02:50;100541.97;;;18.15;100.00
19553;BME280;9420;50.876;7.012;2023-03-22T03:05:20;100536.81;;;17.56;100.00
19553;BME280;9420;50.876;7.012;2023-03-22T03:07:55;100536.84;;;17.84;100.00
19553;BME280;9420;50.876;7.012;2023-03-22T03:10:25;100531.50;;;17.98;100.00
19553;BME280;9420;50.876;7.012;2023-03-22T03:12:54;100529.78;;;17.83;100.00
19553;BME280;9420;50.876;7.012;2023-03-22T03:15:22;100522.56;;;17.85;100.00
19553;BME280;9420;50.876;7.012;2023-03-22T03:18:19;100526.13;;;17.41;100.00
19553;BME280;9420;50.876;7.012;2023-03-22T03:21:02;100531.19;;;17.46;100.00
19553;BME280;9420;50.876;7.012;2023-03-22T03:23:43;100523.38;;;17.43;100.00
19553;BME280;9420;50.876;7.012;2023-03-22T03:26:27;100522.31;;;17.31;100.00
19553;BME280;9420;50.876;7.012;2023-03-22T03:29:02;100521.56;;;17.43;100.00
19553;BME280;9420;50.876;7.012;2023-03-22T03:31:37;100516.63;;;17.37;100.00
19553;BME280;9420;50.876;7.012;2023-03-22T03:34:17;100524.47;;;17.11;100.00
19553;BME280;9420;50.876;7.012;2023-03-22T03:36:53;100520.97;;;17.24;100.00
19553;BME280;9420;50.876;7.012;2023-03-22T03:39:27;100527.28;;;17.37;100.00
19553;BME280;9420;50.876;7.012;2023-03-22T03:42:00;100519.50;;;17.48;100.00
19553;BME280;9420;50.876;7.012;2023-03-22T03:44:30;100516.63;;;17.37;100.00
19553;BME280;9420;50.876;7.012;2023-03-22T03:47:00;100518.13;;;17.57;100.00
19553;BME280;9420;50.876;7.012;2023-03-22T03:49:28;100517.97;;;17.44;100.00
19553;BME280;9420;50.876;7.012;2023-03-22T03:51:55;100518.31;;;17.38;100.00
19553;BME280;9420;50.876;7.012;2023-03-22T03:54:22;100526.97;;;17.28;100.00
19553;BME280;9420;50.876;7.012;2023-03-22T03:56:49;100513.50;;;17.01;100.00
19553;BME280;9420;50.876;7.012;2023-03-22T03:59:19;100533.81;;;16.57;100.00
19553;BME280;9420;50.876;7.012;2023-03-22T04:01:46;100540.66;;;16.92;100.00
19553;BME280;9420;50.876;7.012;2023-03-22T04:04:18;100530.97;;;17.05;100.00
19553;BME280;9420;50.876;7.012;2023-03-22T04:06:51;100532.56;;;17.53;100.00
19553;BME280;9420;50.876;7.012;2023-03-22T04:09:19;100545.78;;;17.25;100.00
19553;BME280;9420;50.876;7.012;2023-03-22T04:11:46;100528.38;;;17.19;100.00
19553;BME280;9420;50.876;7.012;2023-03-22T04:14:13;100534.00;;;17.29;100.00
19553;BME280;9420;50.876;7.012;2023-03-22T04:16:42;100526.16;;;17.56;100.00
19553;BME280;9420;50.876;7.012;2023-03-22T04:19:08;100523.16;;;17.90;100.00
19553;BME280;9420;50.876;7.012;2023-03-22T04:21:36;100527.16;;;17.97;100.00
19553;BME280;9420;50.876;7.012;2023-03-22T04:24:03;100532.25;;;17.58;100.00
19553;BME280;9420;50.876;7.012;2023-03-22T04:26:31;100525.63;;;17.65;100.00
19553;BME280;9420;50.876;7.012;2023-03-22T04:28:58;100533.94;;;17.44;100.00
19553;BME280;9420;50.876;7.012;2023-03-22T04:31:28;100532.97;;;17.45;100.00
19553;BME280;9420;50.876;7.012;2023-03-22T04:33:56;100530.69;;;17.39;100.00
19553;BME280;9420;50.876;7.012;2023-03-22T04:36:25;100525.41;;;17.24;100.00
19553;BME280;9420;50.876;7.012;2023-03-22T04:38:56;100523.81;;;17.21;100.00
19553;BME280;9420;50.876;7.012;2023-03-22T04:41:23;100520.19;;;17.22;100.00
19553;BME280;9420;50.876;7.012;2023-03-22T04:43:50;100521.94;;;17.23;100.00
19553;BME280;9420;50.876;7.012;2023-03-22T04:46:17;100513.13;;;17.07;100.00
19553;BME280;9420;50.876;7.012;2023-03-22T04:48:46;100508.63;;;17.37;100.00
19553;BME280;9420;50.876;7.012;2023-03-22T04:51:14;100505.81;;;17.40;100.00
19553;BME280;9420;50.876;7.012;2023-03-22T04:53:41;100510.91;;;17.15;100.00
19553;BME280;9420;50.876;7.012;2023-03-22T04:56:11;100505.38;;;17.18;100.00
19553;BME280;9420;50.876;7.012;2023-03-22T04:58:40;100505.97;;;17.37;100.00
19553;BME280;9420;50.876;7.012;2023-03-22T05:01:09;100502.59;;;17.20;100.00
19553;BME280;9420;50.876;7.012;2023-03-22T05:03:37;100502.50;;;17.07;100.00
19553;BME280;9420;50.876;7.012;2023-03-22T05:06:06;100509.88;;;17.32;100.00
19553;BME280;9420;50.876;7.012;2023-03-22T05:08:35;100500.50;;;17.69;100.00
19553;BME280;9420;50.876;7.012;2023-03-22T05:11:06;100494.53;;;17.79;100.00
19553;BME280;9420;50.876;7.012;2023-03-22T05:13:34;100505.66;;;17.72;100.00
19553;BME280;9420;50.876;7.012;2023-03-22T05:16:02;100509.75;;;17.63;100.00
19553;BME280;9420;50.876;7.012;2023-03-22T05:18:29;100500.88;;;17.77;100.00
19553;BME280;9420;50.876;7.012;2023-03-22T05:20:58;100491.94;;;17.92;100.00
19553;BME280;9420;50.876;7.012;2023-03-22T05:23:28;100483.56;;;17.56;100.00
19553;BME280;9420;50.876;7.012;2023-03-22T05:25:57;100488.59;;;17.46;100.00
19553;BME280;9420;50.876;7.012;2023-03-22T05:28:26;100482.41;;;17.45;100.00
19553;BME280;9420;50.876;7.012;2023-03-22T05:30:53;100484.94;;;17.63;100.00
19553;BME280;9420;50.876;7.012;2023-03-22T05:33:20;100493.91;;;17.46;100.00
19553;BME280;9420;50.876;7.012;2023-03-22T05:35:48;100497.53;;;17.01;100.00
19553;BME280;9420;50.876;7.012;2023-03-22T05:38:16;100490.75;;;17.25;100.00
19553;BME280;9420;50.876;7.012;2023-03-22T05:40:43;100491.16;;;17.47;100.00
19553;BME280;9420;50.876;7.012;2023-03-22T05:43:12;100494.25;;;17.70;100.00
19553;BME280;9420;50.876;7.012;2023-03-22T05:45:41;100490.34;;;17.75;100.00
19553;BME280;9420;50.876;7.012;2023-03-22T05:48:10;100499.16;;;17.62;100.00
19553;BME280;9420;50.876;7.012;2023-03-22T05:50:38;100500.91;;;17.63;100.00
19553;BME280;9420;50.876;7.012;2023-03-22T05:53:05;100503.28;;;17.67;100.00
19553;BME280;9420;50.876;7.012;2023-03-22T05:55:32;100508.78;;;17.92;100.00
19553;BME280;9420;50.876;7.012;2023-03-22T05:57:59;100511.72;;;17.88;100.00
19553;BME280;9420;50.876;7.012;2023-03-22T06:00:28;100509.63;;;18.07;100.00
19553;BME280;9420;50.876;7.012;2023-03-22T06:02:58;100507.06;;;17.91;100.00
19553;BME280;9420;50.876;7.012;2023-03-22T06:05:29;100513.22;;;18.06;100.00
19553;BME280;9420;50.876;7.012;2023-03-22T06:07:57;100508.38;;;18.39;100.00
19553;BME280;9420;50.876;7.012;2023-03-22T06:10:25;100503.94;;;18.66;100.00
19553;BME280;9420;50.876;7.012;2023-03-22T06:12:54;100503.59;;;18.58;100.00
19553;BME280;9420;50.876;7.012;2023-03-22T06:15:21;100502.75;;;18.84;100.00
19553;BME280;9420;50.876;7.012;2023-03-22T06:17:49;100501.69;;;18.60;100.00
19553;BME280;9420;50.876;7.012;2023-03-22T06:20:17;100508.00;;;18.98;100.00
19553;BME280;9420;50.876;7.012;2023-03-22T06:22:44;100497.75;;;18.92;100.00
19553;BME280;9420;50.876;7.012;2023-03-22T06:25:11;100500.50;;;18.78;100.00
19553;BME280;9420;50.876;7.012;2023-03-22T06:27:39;100501.69;;;18.60;100.00
19553;BME280;9420;50.876;7.012;2023-03-22T06:30:08;100495.78;;;18.82;100.00
19553;BME280;9420;50.876;7.012;2023-03-22T06:32:35;100507.34;;;18.42;100.00
19553;BME280;9420;50.876;7.012;2023-03-22T06:35:04;100513.25;;;18.73;100.00
19553;BME280;9420;50.876;7.012;2023-03-22T06:37:31;100512.16;;;18.63;100.00
19553;BME280;9420;50.876;7.012;2023-03-22T06:40:00;100508.84;;;18.86;100.00
19553;BME280;9420;50.876;7.012;2023-03-22T06:42:28;100509.25;;;18.80;100.00
19553;BME280;9420;50.876;7.012;2023-03-22T06:44:55;100513.34;;;18.98;100.00
19553;BME280;9420;50.876;7.012;2023-03-22T06:47:23;100519.75;;;19.09;100.00
19553;BME280;9420;50.876;7.012;2023-03-22T06:49:51;100518.34;;;18.90;100.00
19553;BME280;9420;50.876;7.012;2023-03-22T06:52:19;100506.53;;;19.20;100.00
19553;BME280;9420;50.876;7.012;2023-03-22T06:54:46;100508.69;;;19.27;99.41
19553;BME280;9420;50.876;7.012;2023-03-22T06:57:13;100516.50;;;18.78;100.00
19553;BME280;9420;50.876;7.012;2023-03-22T06:59:40;100511.69;;;18.83;100.00
19553;BME280;9420;50.876;7.012;2023-03-22T07:02:10;100513.41;;;18.84;100.00
19553;BME280;9420;50.876;7.012;2023-03-22T07:04:38;100499.53;;;19.56;100.00
19553;BME280;9420;50.876;7.012;2023-03-22T07:07:05;100495.00;;;19.19;100.00
19553;BME280;9420;50.876;7.012;2023-03-22T07:09:34;100500.81;;;19.51;99.71
19553;BME280;9420;50.876;7.012;2023-03-22T07:12:03;100495.03;;;19.32;100.00
19553;BME280;9420;50.876;7.012;2023-03-22T07:14:32;100495.16;;;19.68;98.93
19553;BME280;9420;50.876;7.012;2023-03-22T07:16:59;100495.72;;;19.73;98.65
19553;BME280;9420;50.876;7.012;2023-03-22T07:19:26;100492.19;;;19.72;98.23
19553;BME280;9420;50.876;7.012;2023-03-22T07:21:53;100488.75;;;19.70;97.56
19553;BME280;9420;50.876;7.012;2023-03-22T07:24:20;100483.06;;;19.88;97.83
19553;BME280;9420;50.876;7.012;2023-03-22T07:26:49;100486.84;;;19.60;97.81
19553;BME280;9420;50.876;7.012;2023-03-22T07:29:16;100488.69;;;20.44;95.65
19553;BME280;9420;50.876;7.012;2023-03-22T07:31:43;100492.97;;;20.71;93.21
19553;BME280;9420;50.876;7.012;2023-03-22T07:34:10;100481.72;;;20.18;94.42
19553;BME280;9420;50.876;7.012;2023-03-22T07:36:37;100474.41;;;20.33;94.32
19553;BME280;9420;50.876;7.012;2023-03-22T07:39:04;100468.50;;;20.40;93.92
19553;BME280;9420;50.876;7.012;2023-03-22T07:41:31;100467.13;;;20.35;93.89
19553;BME280;9420;50.876;7.012;2023-03-22T07:44:00;100463.84;;;20.31;92.05
19553;BME280;9420;50.876;7.012;2023-03-22T07:46:28;100458.41;;;20.68;90.29
19553;BME280;9420;50.876;7.012;2023-03-22T07:48:55;100464.53;;;20.46;90.80
19553;BME280;9420;50.876;7.012;2023-03-22T07:51:22;100461.91;;;20.92;90.01
19553;BME280;9420;50.876;7.012;2023-03-22T07:53:49;100462.75;;;20.57;90.24
19553;BME280;9420;50.876;7.012;2023-03-22T07:56:16;100457.66;;;20.89;89.55
19553;BME280;9420;50.876;7.012;2023-03-22T07:58:44;100461.44;;;20.98;87.79
19553;BME280;9420;50.876;7.012;2023-03-22T08:01:12;100469.59;;;20.38;88.19
19553;BME280;9420;50.876;7.012;2023-03-22T08:03:39;100474.25;;;20.23;88.82
19553;BME280;9420;50.876;7.012;2023-03-22T08:06:07;100464.75;;;20.43;90.78
19553;BME280;9420;50.876;7.012;2023-03-22T08:08:35;100460.34;;;20.66;89.20
19553;BME280;9420;50.876;7.012;2023-03-22T08:11:03;100464.00;;;20.65;89.94
19553;BME280;9420;50.876;7.012;2023-03-22T08:13:30;100455.38;;;20.37;87.64
19553;BME280;9420;50.876;7.012;2023-03-22T08:15:58;100453.84;;;20.57;86.20
19553;BME280;9420;50.876;7.012;2023-03-22T08:18:27;100460.25;;;20.43;83.87
19553;BME280;9420;50.876;7.012;2023-03-22T08:20:55;100458.59;;;20.30;81.27
19553;BME280;9420;50.876;7.012;2023-03-22T08:23:23;100459.97;;;20.94;78.95
19553;BME280;9420;50.876;7.012;2023-03-22T08:25:50;100459.06;;;21.06;76.60
19553;BME280;9420;50.876;7.012;2023-03-22T08:28:18;100456.19;;;20.85;76.43
19553;BME280;9420;50.876;7.012;2023-03-22T08:30:47;100455.47;;;20.59;73.43
19553;BME280;9420;50.876;7.012;2023-03-22T08:33:15;100484.69;;;20.74;75.66
19553;BME280;9420;50.876;7.012;2023-03-22T08:35:43;100460.88;;;20.23;71.45
19553;BME280;9420;50.876;7.012;2023-03-22T08:38:11;100457.13;;;20.13;72.06
19553;BME280;9420;50.876;7.012;2023-03-22T08:40:38;100456.16;;;21.09;73.24
19553;BME280;9420;50.876;7.012;2023-03-22T08:43:05;100454.09;;;20.78;67.32
19553;BME280;9420;50.876;7.012;2023-03-22T08:45:32;100460.44;;;20.88;66.13
19553;BME280;9420;50.876;7.012;2023-03-22T08:47:59;100489.59;;;20.32;65.55
19553;BME280;9420;50.876;7.012;2023-03-22T08:50:26;100490.75;;;19.92;64.31
19553;BME280;9420;50.876;7.012;2023-03-22T08:52:54;100474.81;;;20.39;67.24
19553;BME280;9420;50.876;7.012;2023-03-22T08:55:22;100483.81;;;20.62;65.66
19553;BME280;9420;50.876;7.012;2023-03-22T08:57:49;100480.97;;;20.16;64.51
19553;BME280;9420;50.876;7.012;2023-03-22T09:00:19;100480.78;;;20.90;61.69
19553;BME280;9420;50.876;7.012;2023-03-22T09:02:46;100484.00;;;21.06;62.33
19553;BME280;9420;50.876;7.012;2023-03-22T09:05:13;100480.84;;;20.78;61.82
19553;BME280;9420;50.876;7.012;2023-03-22T09:07:41;100489.03;;;20.87;62.60
19553;BME280;9420;50.876;7.012;2023-03-22T09:10:10;100485.00;;;20.93;63.32
19553;BME280;9420;50.876;7.012;2023-03-22T09:12:37;100473.84;;;20.99;59.42
19553;BME280;9420;50.876;7.012;2023-03-22T09:15:06;100482.63;;;21.01;62.60
19553;BME280;9420;50.876;7.012;2023-03-22T09:17:33;100487.34;;;20.63;62.53
19553;BME280;9420;50.876;7.012;2023-03-22T09:20:01;100465.75;;;20.53;61.61
19553;BME280;9420;50.876;7.012;2023-03-22T09:22:28;100482.53;;;20.79;62.29
19553;BME280;9420;50.876;7.012;2023-03-22T09:24:55;100478.06;;;20.79;62.00
19553;BME280;9420;50.876;7.012;2023-03-22T09:27:24;100471.09;;;21.57;61.07
19553;BME280;9420;50.876;7.012;2023-03-22T09:29:51;100471.94;;;21.01;58.89
19553;BME280;9420;50.876;7.012;2023-03-22T09:32:18;100461.50;;;21.20;59.01
19553;BME280;9420;50.876;7.012;2023-03-22T09:34:46;100467.81;;;21.08;59.62
19553;BME280;9420;50.876;7.012;2023-03-22T09:37:13;100470.06;;;21.25;59.91
19553;BME280;9420;50.876;7.012;2023-03-22T09:39:40;100453.16;;;20.90;58.23
19553;BME280;9420;50.876;7.012;2023-03-22T09:42:28;100462.13;;;20.89;60.01
19553;BME280;9420;50.876;7.012;2023-03-22T09:45:02;100453.88;;;21.38;60.19
19553;BME280;9420;50.876;7.012;2023-03-22T09:47:34;100466.53;;;21.13;57.36
19553;BME280;9420;50.876;7.012;2023-03-22T09:50:10;100451.28;;;21.14;57.57
19553;BME280;9420;50.876;7.012;2023-03-22T09:52:39;100431.13;;;21.32;57.76
19553;BME280;9420;50.876;7.012;2023-03-22T09:55:18;100437.81;;;21.15;54.85
19553;BME280;9420;50.876;7.012;2023-03-22T09:58:01;100437.00;;;21.59;54.84
19553;BME280;9420;50.876;7.012;2023-03-22T10:00:39;100448.66;;;21.47;56.82
19553;BME280;9420;50.876;7.012;2023-03-22T10:03:25;100454.28;;;21.44;53.85
19553;BME280;9420;50.876;7.012;2023-03-22T10:05:58;100437.44;;;22.20;53.70
19553;BME280;9420;50.876;7.012;2023-03-22T10:08:52;100444.03;;;21.60;52.21
19553;BME280;9420;50.876;7.012;2023-03-22T10:11:34;100436.25;;;21.46;53.42
19553;BME280;9420;50.876;7.012;2023-03-22T10:14:23;100440.63;;;21.47;52.82
19553;BME280;9420;50.876;7.012;2023-03-22T10:16:56;100434.56;;;21.89;53.23
19553;BME280;9420;50.876;7.012;2023-03-22T10:19:31;100432.97;;;21.76;52.59
19553;BME280;9420;50.876;7.012;2023-03-22T10:22:01;100445.00;;;21.70;51.53
19553;BME280;9420;50.876;7.012;2023-03-22T10:24:34;100429.66;;;22.48;50.91
19553;BME280;9420;50.876;7.012;2023-03-22T10:27:03;100438.00;;;23.18;50.34
19553;BME280;9420;50.876;7.012;2023-03-22T10:29:41;100429.41;;;21.97;50.16
19553;BME280;9420;50.876;7.012;2023-03-22T10:32:15;100427.72;;;21.96;51.79
19553;BME280;9420;50.876;7.012;2023-03-22T10:34:43;100444.47;;;22.21;50.60
19553;BME280;9420;50.876;7.012;2023-03-22T10:37:15;100426.59;;;23.05;50.21
19553;BME280;9420;50.876;7.012;2023-03-22T10:39:48;100429.09;;;22.97;49.37
19553;BME280;9420;50.876;7.012;2023-03-22T10:42:21;100412.78;;;22.57;47.87
19553;BME280;9420;50.876;7.012;2023-03-22T10:44:55;100417.13;;;23.31;50.44
19553;BME280;9420;50.876;7.012;2023-03-22T10:47:33;100413.16;;;23.26;50.85
19553;BME280;9420;50.876;7.012;2023-03-22T10:50:06;100417.00;;;22.71;50.50
19553;BME280;9420;50.876;7.012;2023-03-22T10:52:42;100420.75;;;22.48;50.65
19553;BME280;9420;50.876;7.012;2023-03-22T10:55:15;100447.34;;;21.86;50.31
19553;BME280;9420;50.876;7.012;2023-03-22T10:57:53;100448.91;;;22.10;50.99
19553;BME280;9420;50.876;7.012;2023-03-22T11:00:23;100432.34;;;21.28;50.25
19553;BME280;9420;50.876;7.012;2023-03-22T11:02:53;100436.38;;;21.78;50.52
19553;BME280;9420;50.876;7.012;2023-03-22T11:05:26;100434.81;;;21.86;51.14
19553;BME280;9420;50.876;7.012;2023-03-22T11:07:56;100450.34;;;21.37;49.81
19553;BME280;9420;50.876;7.012;2023-03-22T11:10:28;100463.50;;;21.29;49.71
19553;BME280;9420;50.876;7.012;2023-03-22T11:13:16;100444.78;;;21.73;50.91
19553;BME280;9420;50.876;7.012;2023-03-22T11:15:54;100431.88;;;22.00;51.46
19553;BME280;9420;50.876;7.012;2023-03-22T11:18:28;100440.28;;;21.74;52.02
19553;BME280;9420;50.876;7.012;2023-03-22T11:20:59;100451.34;;;21.01;51.82
19553;BME280;9420;50.876;7.012;2023-03-22T11:23:32;100444.03;;;21.49;52.43
19553;BME280;9420;50.876;7.012;2023-03-22T11:26:07;100434.78;;;21.31;52.21
19553;BME280;9420;50.876;7.012;2023-03-22T11:28:41;100430.34;;;21.08;52.35
19553;BME280;9420;50.876;7.012;2023-03-22T11:31:15;100462.19;;;21.00;52.71
19553;BME280;9420;50.876;7.012;2023-03-22T11:33:55;100449.63;;;21.46;52.42
19553;BME280;9420;50.876;7.012;2023-03-22T11:36:24;100438.69;;;21.60;53.05
19553;BME280;9420;50.876;7.012;2023-03-22T11:38:58;100433.56;;;21.35;51.86
19553;BME280;9420;50.876;7.012;2023-03-22T11:41:28;100431.38;;;21.40;53.04
19553;BME280;9420;50.876;7.012;2023-03-22T11:44:01;100437.59;;;21.63;51.11
19553;BME280;9420;50.876;7.012;2023-03-22T11:46:34;100439.75;;;21.13;50.98
19553;BME280;9420;50.876;7.012;2023-03-22T11:49:10;100437.50;;;21.86;51.90
19553;BME280;9420;50.876;7.012;2023-03-22T11:51:42;100432.38;;;21.94;51.40
19553;BME280;9420;50.876;7.012;2023-03-22T11:54:24;100422.34;;;22.07;49.49
19553;BME280;9420;50.876;7.012;2023-03-22T11:56:56;100426.50;;;21.56;50.73
19553;BME280;9420;50.876;7.012;2023-03-22T11:59:35;100425.56;;;21.90;51.66
19553;BME280;9420;50.876;7.012;2023-03-22T12:02:17;100442.31;;;21.26;50.75
19553;BME280;9420;50.876;7.012;2023-03-22T12:04:49;100418.22;;;21.26;51.76
19553;BME280;9420;50.876;7.012;2023-03-22T12:07:20;100427.91;;;21.16;51.69
19553;BME280;9420;50.876;7.012;2023-03-22T12:09:55;100432.81;;;20.87;51.93
19553;BME280;9420;50.876;7.012;2023-03-22T12:12:28;100438.25;;;20.75;52.81
19553;BME280;9420;50.876;7.012;2023-03-22T12:15:02;100440.34;;;20.47;52.94
19553;BME280;9420;50.876;7.012;2023-03-22T12:17:37;100433.56;;;20.54;54.10
19553;BME280;9420;50.876;7.012;2023-03-22T12:20:18;100449.63;;;20.18;53.34
19553;BME280;9420;50.876;7.012;2023-03-22T12:22:52;100439.38;;;20.48;53.30
19553;BME280;9420;50.876;7.012;2023-03-22T12:25:28;100445.06;;;20.20;53.90
19553;BME280;9420;50.876;7.012;2023-03-22T12:28:01;100426.34;;;20.79;53.99
19553;BME280;9420;50.876;7.012;2023-03-22T12:30:37;100422.63;;;20.92;55.11
19553;BME280;9420;50.876;7.012;2023-03-22T12:33:16;100431.97;;;20.52;54.21
19553;BME280;9420;50.876;7.012;2023-03-22T12:35:46;100422.34;;;20.49;56.25
19553;BME280;9420;50.876;7.012;2023-03-22T12:38:25;100425.22;;;20.35;56.76
19553;BME280;9420;50.876;7.012;2023-03-22T12:40:59;100419.88;;;20.35;56.78
19553;BME280;9420;50.876;7.012;2023-03-22T12:43:45;100418.94;;;20.47;56.64
19553;BME280;9420;50.876;7.012;2023-03-22T12:46:19;100401.28;;;20.69;56.25
19553;BME280;9420;50.876;7.012;2023-03-22T12:48:54;100411.03;;;20.81;55.92
19553;BME280;9420;50.876;7.012;2023-03-22T12:51:23;100410.63;;;20.74;56.37
19553;BME280;9420;50.876;7.012;2023-03-22T12:53:53;100417.34;;;20.45;55.56
19553;BME280;9420;50.876;7.012;2023-03-22T12:56:35;100405.16;;;20.65;56.15
19553;BME280;9420;50.876;7.012;2023-03-22T12:59:11;100402.22;;;20.56;56.56
19553;BME280;9420;50.876;7.012;2023-03-22T13:01:47;100405.44;;;20.49;56.49
19553;BME280;9420;50.876;7.012;2023-03-22T13:04:32;100405.03;;;20.42;57.49
19553;BME280;9420;50.876;7.012;2023-03-22T13:07:16;100405.41;;;20.73;57.82
19553;BME280;9420;50.876;7.012;2023-03-22T13:09:58;100415.50;;;21.04;54.71
19553;BME280;9420;50.876;7.012;2023-03-22T13:12:32;100407.75;;;20.77;57.13
19553;BME280;9420;50.876;7.012;2023-03-22T13:15:31;100411.44;;;20.52;58.50
19553;BME280;9420;50.876;7.012;2023-03-22T13:17:58;100405.94;;;20.78;58.86
19553;BME280;9420;50.876;7.012;2023-03-22T13:20:31;100400.00;;;20.50;61.58
19553;BME280;9420;50.876;7.012;2023-03-22T13:23:10;100410.47;;;20.17;61.47